sensor_id;sensor_type;location;lat;lon;timestamp;P1;durP1;ratioP1;P2;durP2;ratioP2
73456;SDS011;61691;53.072;6.582;2023-08-08T00:00:52;15.05;;;3.03;;
73456;SDS011;61691;53.072;6.582;2023-08-08T00:03:19;11.15;;;2.72;;
73456;SDS011;61691;53.072;6.582;2023-08-08T00:05:46;11.30;;;2.80;;
73456;SDS011;61691;53.072;6.582;2023-08-08T00:08:12;12.43;;;2.75;;
73456;SDS011;61691;53.072;6.582;2023-08-08T00:10:39;13.18;;;2.88;;
73456;SDS011;61691;53.072;6.582;2023-08-08T00:13:06;13.32;;;2.63;;
73456;SDS011;61691;53.072;6.582;2023-08-08T00:15:33;12.57;;;2.50;;
73456;SDS011;61691;53.072;6.582;2023-08-08T00:18:00;11.25;;;2.70;;
73456;SDS011;61691;53.072;6.582;2023-08-08T00:20:26;11.98;;;3.35;;
73456;SDS011;61691;53.072;6.582;2023-08-08T00:22:53;10.82;;;2.97;;
73456;SDS011;61691;53.072;6.582;2023-08-08T00:25:20;13.43;;;2.70;;
73456;SDS011;61691;53.072;6.582;2023-08-08T00:27:47;13.70;;;2.80;;
73456;SDS011;61691;53.072;6.582;2023-08-08T00:30:13;11.38;;;3.10;;
73456;SDS011;61691;53.072;6.582;2023-08-08T00:32:40;12.07;;;2.88;;
73456;SDS011;61691;53.072;6.582;2023-08-08T00:35:07;13.15;;;3.10;;
73456;SDS011;61691;53.072;6.582;2023-08-08T00:37:34;15.02;;;3.53;;
73456;SDS011;61691;53.072;6.582;2023-08-08T00:40:02;12.93;;;3.13;;
73456;SDS011;61691;53.072;6.582;2023-08-08T00:42:29;17.40;;;3.95;;
73456;SDS011;61691;53.072;6.582;2023-08-08T00:44:55;12.50;;;3.17;;
73456;SDS011;61691;53.072;6.582;2023-08-08T00:47:28;12.52;;;3.10;;
73456;SDS011;61691;53.072;6.582;2023-08-08T00:49:55;16.45;;;3.15;;
73456;SDS011;61691;53.072;6.582;2023-08-08T00:52:22;12.80;;;3.10;;
73456;SDS011;61691;53.072;6.582;2023-08-08T00:54:49;13.00;;;3.20;;
73456;SDS011;61691;53.072;6.582;2023-08-08T00:57:16;12.82;;;3.20;;
73456;SDS011;61691;53.072;6.582;2023-08-08T00:59:42;13.27;;;3.42;;
73456;SDS011;61691;53.072;6.582;2023-08-08T01:02:09;14.00;;;3.17;;
73456;SDS011;61691;53.072;6.582;2023-08-08T01:04:36;14.20;;;3.30;;
73456;SDS011;61691;53.072;6.582;2023-08-08T01:09:53;13.75;;;3.00;;
73456;SDS011;61691;53.072;6.582;2023-08-08T01:12:23;12.27;;;2.67;;
73456;SDS011;61691;53.072;6.582;2023-08-08T01:14:52;13.95;;;3.22;;
73456;SDS011;61691;53.072;6.582;2023-08-08T01:17:20;11.20;;;2.80;;
73456;SDS011;61691;53.072;6.582;2023-08-08T01:19:48;13.77;;;2.97;;
73456;SDS011;61691;53.072;6.582;2023-08-08T01:22:20;11.85;;;2.85;;
73456;SDS011;61691;53.072;6.582;2023-08-08T01:24:52;11.85;;;2.63;;
73456;SDS011;61691;53.072;6.582;2023-08-08T01:27:19;14.98;;;3.33;;
73456;SDS011;61691;53.072;6.582;2023-08-08T01:29:46;14.60;;;3.00;;
73456;SDS011;61691;53.072;6.582;2023-08-08T01:32:13;13.55;;;2.75;;
73456;SDS011;61691;53.072;6.582;2023-08-08T01:34:40;14.73;;;3.00;;
73456;SDS011;61691;53.072;6.582;2023-08-08T01:37:09;12.95;;;2.90;;
73456;SDS011;61691;53.072;6.582;2023-08-08T01:39:41;12.63;;;2.80;;
73456;SDS011;61691;53.072;6.582;2023-08-08T01:42:10;12.15;;;3.00;;
73456;SDS011;61691;53.072;6.582;2023-08-08T01:44:38;12.52;;;2.92;;
73456;SDS011;61691;53.072;6.582;2023-08-08T01:47:07;13.23;;;2.90;;
73456;SDS011;61691;53.072;6.582;2023-08-08T01:49:34;11.75;;;2.75;;
73456;SDS011;61691;53.072;6.582;2023-08-08T01:52:01;11.43;;;3.03;;
73456;SDS011;61691;53.072;6.582;2023-08-08T01:54:28;13.65;;;2.72;;
73456;SDS011;61691;53.072;6.582;2023-08-08T01:56:55;13.80;;;2.90;;
73456;SDS011;61691;53.072;6.582;2023-08-08T01:59:22;13.15;;;3.00;;
73456;SDS011;61691;53.072;6.582;2023-08-08T02:01:49;13.65;;;3.00;;
73456;SDS011;61691;53.072;6.582;2023-08-08T02:04:16;15.07;;;3.33;;
73456;SDS011;61691;53.072;6.582;2023-08-08T02:06:42;13.20;;;3.15;;
73456;SDS011;61691;53.072;6.582;2023-08-08T02:09:09;14.32;;;3.03;;
73456;SDS011;61691;53.072;6.582;2023-08-08T02:11:36;13.30;;;2.90;;
73456;SDS011;61691;53.072;6.582;2023-08-08T02:14:03;12.95;;;2.80;;
73456;SDS011;61691;53.072;6.582;2023-08-08T02:16:29;13.32;;;3.20;;
73456;SDS011;61691;53.072;6.582;2023-08-08T02:18:56;12.75;;;2.80;;
73456;SDS011;61691;53.072;6.582;2023-08-08T02:21:23;13.63;;;3.33;;
73456;SDS011;61691;53.072;6.582;2023-08-08T02:23:50;14.55;;;3.40;;
73456;SDS011;61691;53.072;6.582;2023-08-08T02:26:17;12.07;;;2.88;;
73456;SDS011;61691;53.072;6.582;2023-08-08T02:28:43;15.30;;;3.20;;
73456;SDS011;61691;53.072;6.582;2023-08-08T02:31:10;13.55;;;3.40;;
73456;SDS011;61691;53.072;6.582;2023-08-08T02:33:37;12.32;;;2.88;;
73456;SDS011;61691;53.072;6.582;2023-08-08T02:36:03;13.15;;;3.03;;
73456;SDS011;61691;53.072;6.582;2023-08-08T02:38:30;14.93;;;3.40;;
73456;SDS011;61691;53.072;6.582;2023-08-08T02:40:57;15.25;;;3.47;;
73456;SDS011;61691;53.072;6.582;2023-08-08T02:43:24;15.18;;;3.60;;
73456;SDS011;61691;53.072;6.582;2023-08-08T02:45:50;17.27;;;3.70;;
73456;SDS011;61691;53.072;6.582;2023-08-08T02:48:17;15.13;;;3.30;;
73456;SDS011;61691;53.072;6.582;2023-08-08T02:50:44;12.05;;;3.25;;
73456;SDS011;61691;53.072;6.582;2023-08-08T02:53:11;14.32;;;3.20;;
73456;SDS011;61691;53.072;6.582;2023-08-08T02:55:38;15.73;;;3.30;;
73456;SDS011;61691;53.072;6.582;2023-08-08T02:58:04;13.68;;;3.30;;
73456;SDS011;61691;53.072;6.582;2023-08-08T03:00:32;15.70;;;3.33;;
73456;SDS011;61691;53.072;6.582;2023-08-08T03:02:58;13.07;;;2.90;;
73456;SDS011;61691;53.072;6.582;2023-08-08T03:05:25;16.38;;;3.15;;
73456;SDS011;61691;53.072;6.582;2023-08-08T03:07:52;13.35;;;3.40;;
73456;SDS011;61691;53.072;6.582;2023-08-08T03:10:19;14.98;;;3.30;;
73456;SDS011;61691;53.072;6.582;2023-08-08T03:12:45;13.40;;;3.08;;
73456;SDS011;61691;53.072;6.582;2023-08-08T03:15:12;13.23;;;3.20;;
73456;SDS011;61691;53.072;6.582;2023-08-08T03:17:40;14.95;;;3.63;;
73456;SDS011;61691;53.072;6.582;2023-08-08T03:20:07;17.13;;;3.65;;
73456;SDS011;61691;53.072;6.582;2023-08-08T03:22:35;16.55;;;3.20;;
73456;SDS011;61691;53.072;6.582;2023-08-08T03:25:01;15.10;;;3.42;;
73456;SDS011;61691;53.072;6.582;2023-08-08T03:27:30;16.25;;;3.15;;
73456;SDS011;61691;53.072;6.582;2023-08-08T03:29:57;17.80;;;3.35;;
73456;SDS011;61691;53.072;6.582;2023-08-08T03:32:24;18.33;;;3.70;;
73456;SDS011;61691;53.072;6.582;2023-08-08T03:34:50;13.43;;;3.35;;
73456;SDS011;61691;53.072;6.582;2023-08-08T03:37:17;15.23;;;3.67;;
73456;SDS011;61691;53.072;6.582;2023-08-08T03:39:44;14.32;;;3.05;;
73456;SDS011;61691;53.072;6.582;2023-08-08T03:42:11;17.88;;;3.28;;
73456;SDS011;61691;53.072;6.582;2023-08-08T03:44:37;13.68;;;2.88;;
73456;SDS011;61691;53.072;6.582;2023-08-08T03:47:04;12.98;;;3.00;;
73456;SDS011;61691;53.072;6.582;2023-08-08T03:52:11;23.30;;;3.20;;
73456;SDS011;61691;53.072;6.582;2023-08-08T03:54:39;15.07;;;2.72;;
73456;SDS011;61691;53.072;6.582;2023-08-08T03:57:06;14.20;;;2.85;;
73456;SDS011;61691;53.072;6.582;2023-08-08T03:59:33;16.00;;;2.92;;
73456;SDS011;61691;53.072;6.582;2023-08-08T04:01:59;15.38;;;3.05;;
73456;SDS011;61691;53.072;6.582;2023-08-08T04:04:27;14.82;;;3.38;;
73456;SDS011;61691;53.072;6.582;2023-08-08T04:06:53;16.13;;;3.10;;
73456;SDS011;61691;53.072;6.582;2023-08-08T04:09:20;15.75;;;3.20;;
73456;SDS011;61691;53.072;6.582;2023-08-08T04:11:47;15.45;;;2.75;;
73456;SDS011;61691;53.072;6.582;2023-08-08T04:14:14;13.70;;;3.00;;
73456;SDS011;61691;53.072;6.582;2023-08-08T04:16:41;13.95;;;3.03;;
73456;SDS011;61691;53.072;6.582;2023-08-08T04:19:07;16.17;;;3.10;;
73456;SDS011;61691;53.072;6.582;2023-08-08T04:21:34;15.75;;;3.33;;
73456;SDS011;61691;53.072;6.582;2023-08-08T04:24:01;16.30;;;3.10;;
73456;SDS011;61691;53.072;6.582;2023-08-08T04:26:28;16.10;;;3.20;;
73456;SDS011;61691;53.072;6.582;2023-08-08T04:28:55;13.98;;;3.60;;
73456;SDS011;61691;53.072;6.582;2023-08-08T04:31:22;16.85;;;3.20;;
73456;SDS011;61691;53.072;6.582;2023-08-08T04:33:52;16.63;;;3.33;;
73456;SDS011;61691;53.072;6.582;2023-08-08T04:36:27;17.50;;;3.30;;
73456;SDS011;61691;53.072;6.582;2023-08-08T04:38:54;13.73;;;3.28;;
73456;SDS011;61691;53.072;6.582;2023-08-08T04:41:21;14.52;;;3.00;;
73456;SDS011;61691;53.072;6.582;2023-08-08T04:43:48;13.15;;;2.90;;
73456;SDS011;61691;53.072;6.582;2023-08-08T04:46:14;14.00;;;2.90;;
73456;SDS011;61691;53.072;6.582;2023-08-08T04:48:41;14.75;;;3.00;;
73456;SDS011;61691;53.072;6.582;2023-08-08T04:51:08;13.07;;;2.95;;
73456;SDS011;61691;53.072;6.582;2023-08-08T04:53:35;16.70;;;3.25;;
73456;SDS011;61691;53.072;6.582;2023-08-08T04:56:02;16.75;;;2.90;;
73456;SDS011;61691;53.072;6.582;2023-08-08T04:58:29;13.73;;;2.70;;
73456;SDS011;61691;53.072;6.582;2023-08-08T05:00:56;14.43;;;2.28;;
73456;SDS011;61691;53.072;6.582;2023-08-08T05:03:23;10.60;;;2.40;;
73456;SDS011;61691;53.072;6.582;2023-08-08T05:05:50;12.88;;;2.35;;
73456;SDS011;61691;53.072;6.582;2023-08-08T05:08:16;14.77;;;2.58;;
73456;SDS011;61691;53.072;6.582;2023-08-08T05:10:44;13.65;;;2.40;;
73456;SDS011;61691;53.072;6.582;2023-08-08T05:13:10;13.30;;;2.65;;
73456;SDS011;61691;53.072;6.582;2023-08-08T05:15:37;14.15;;;2.33;;
73456;SDS011;61691;53.072;6.582;2023-08-08T05:18:04;14.88;;;3.03;;
73456;SDS011;61691;53.072;6.582;2023-08-08T05:20:31;10.23;;;2.20;;
73456;SDS011;61691;53.072;6.582;2023-08-08T05:22:58;10.73;;;2.40;;
73456;SDS011;61691;53.072;6.582;2023-08-08T05:25:24;13.10;;;2.65;;
73456;SDS011;61691;53.072;6.582;2023-08-08T05:27:51;13.20;;;2.30;;
73456;SDS011;61691;53.072;6.582;2023-08-08T05:30:19;14.07;;;2.40;;
73456;SDS011;61691;53.072;6.582;2023-08-08T05:32:46;14.07;;;2.08;;
73456;SDS011;61691;53.072;6.582;2023-08-08T05:35:13;10.60;;;2.10;;
73456;SDS011;61691;53.072;6.582;2023-08-08T05:37:40;12.75;;;2.10;;
73456;SDS011;61691;53.072;6.582;2023-08-08T05:40:07;10.45;;;1.80;;
73456;SDS011;61691;53.072;6.582;2023-08-08T05:42:34;11.82;;;2.22;;
73456;SDS011;61691;53.072;6.582;2023-08-08T05:45:01;10.65;;;2.20;;
73456;SDS011;61691;53.072;6.582;2023-08-08T05:47:28;9.82;;;2.05;;
73456;SDS011;61691;53.072;6.582;2023-08-08T05:49:54;11.85;;;2.08;;
73456;SDS011;61691;53.072;6.582;2023-08-08T05:52:21;9.35;;;2.00;;
73456;SDS011;61691;53.072;6.582;2023-08-08T05:54:48;12.60;;;1.92;;
73456;SDS011;61691;53.072;6.582;2023-08-08T05:57:15;10.32;;;1.60;;
73456;SDS011;61691;53.072;6.582;2023-08-08T05:59:42;10.68;;;1.98;;
73456;SDS011;61691;53.072;6.582;2023-08-08T06:02:11;12.43;;;2.00;;
73456;SDS011;61691;53.072;6.582;2023-08-08T06:04:38;11.65;;;1.85;;
73456;SDS011;61691;53.072;6.582;2023-08-08T06:07:04;7.03;;;1.67;;
73456;SDS011;61691;53.072;6.582;2023-08-08T06:09:35;9.65;;;1.80;;
73456;SDS011;61691;53.072;6.582;2023-08-08T06:12:04;13.02;;;1.70;;
73456;SDS011;61691;53.072;6.582;2023-08-08T06:14:31;7.80;;;1.67;;
73456;SDS011;61691;53.072;6.582;2023-08-08T06:16:58;11.68;;;1.70;;
73456;SDS011;61691;53.072;6.582;2023-08-08T06:19:25;9.55;;;1.80;;
73456;SDS011;61691;53.072;6.582;2023-08-08T06:21:51;15.43;;;2.00;;
73456;SDS011;61691;53.072;6.582;2023-08-08T06:24:18;12.98;;;2.55;;
73456;SDS011;61691;53.072;6.582;2023-08-08T06:26:45;9.50;;;1.90;;
73456;SDS011;61691;53.072;6.582;2023-08-08T06:29:12;10.02;;;1.85;;
73456;SDS011;61691;53.072;6.582;2023-08-08T06:31:40;13.55;;;2.20;;
73456;SDS011;61691;53.072;6.582;2023-08-08T06:34:08;11.23;;;1.95;;
73456;SDS011;61691;53.072;6.582;2023-08-08T06:36:35;11.07;;;2.10;;
73456;SDS011;61691;53.072;6.582;2023-08-08T06:39:02;13.65;;;2.17;;
73456;SDS011;61691;53.072;6.582;2023-08-08T06:41:29;12.70;;;1.85;;
73456;SDS011;61691;53.072;6.582;2023-08-08T06:43:56;14.30;;;2.83;;
73456;SDS011;61691;53.072;6.582;2023-08-08T06:46:23;11.38;;;1.92;;
73456;SDS011;61691;53.072;6.582;2023-08-08T06:48:51;13.95;;;2.10;;
73456;SDS011;61691;53.072;6.582;2023-08-08T06:51:23;12.82;;;2.10;;
73456;SDS011;61691;53.072;6.582;2023-08-08T06:53:53;9.63;;;1.90;;
73456;SDS011;61691;53.072;6.582;2023-08-08T06:56:20;10.95;;;1.60;;
73456;SDS011;61691;53.072;6.582;2023-08-08T06:58:47;10.80;;;1.83;;
73456;SDS011;61691;53.072;6.582;2023-08-08T07:01:14;10.55;;;1.75;;
73456;SDS011;61691;53.072;6.582;2023-08-08T07:03:41;10.55;;;1.70;;
73456;SDS011;61691;53.072;6.582;2023-08-08T07:06:07;10.35;;;1.60;;
73456;SDS011;61691;53.072;6.582;2023-08-08T07:08:34;9.90;;;1.52;;
73456;SDS011;61691;53.072;6.582;2023-08-08T07:11:01;12.20;;;2.30;;
73456;SDS011;61691;53.072;6.582;2023-08-08T07:13:28;8.35;;;1.55;;
73456;SDS011;61691;53.072;6.582;2023-08-08T07:15:55;9.32;;;1.65;;
73456;SDS011;61691;53.072;6.582;2023-08-08T07:18:22;13.35;;;2.13;;
73456;SDS011;61691;53.072;6.582;2023-08-08T07:20:49;8.80;;;1.67;;
73456;SDS011;61691;53.072;6.582;2023-08-08T07:23:16;6.70;;;1.60;;
73456;SDS011;61691;53.072;6.582;2023-08-08T07:25:43;8.77;;;1.50;;
73456;SDS011;61691;53.072;6.582;2023-08-08T07:28:10;8.00;;;1.58;;
73456;SDS011;61691;53.072;6.582;2023-08-08T07:30:37;9.05;;;1.52;;
73456;SDS011;61691;53.072;6.582;2023-08-08T07:33:03;10.05;;;1.45;;
73456;SDS011;61691;53.072;6.582;2023-08-08T07:35:30;12.40;;;1.70;;
73456;SDS011;61691;53.072;6.582;2023-08-08T07:37:57;8.82;;;1.60;;
73456;SDS011;61691;53.072;6.582;2023-08-08T07:40:24;14.57;;;2.45;;
73456;SDS011;61691;53.072;6.582;2023-08-08T07:42:51;14.20;;;1.80;;
73456;SDS011;61691;53.072;6.582;2023-08-08T07:45:18;9.38;;;1.40;;
73456;SDS011;61691;53.072;6.582;2023-08-08T07:47:45;8.50;;;1.60;;
73456;SDS011;61691;53.072;6.582;2023-08-08T07:50:12;11.32;;;1.60;;
73456;SDS011;61691;53.072;6.582;2023-08-08T07:52:39;7.60;;;1.30;;
73456;SDS011;61691;53.072;6.582;2023-08-08T07:55:06;14.02;;;2.30;;
73456;SDS011;61691;53.072;6.582;2023-08-08T07:57:33;8.80;;;1.70;;
73456;SDS011;61691;53.072;6.582;2023-08-08T08:00:02;9.30;;;1.55;;
73456;SDS011;61691;53.072;6.582;2023-08-08T08:02:41;8.43;;;1.50;;
73456;SDS011;61691;53.072;6.582;2023-08-08T08:05:10;12.57;;;2.17;;
73456;SDS011;61691;53.072;6.582;2023-08-08T08:07:38;12.25;;;1.70;;
73456;SDS011;61691;53.072;6.582;2023-08-08T08:10:06;7.38;;;1.67;;
73456;SDS011;61691;53.072;6.582;2023-08-08T08:12:35;8.13;;;1.73;;
73456;SDS011;61691;53.072;6.582;2023-08-08T08:15:02;11.70;;;1.88;;
73456;SDS011;61691;53.072;6.582;2023-08-08T08:17:30;11.85;;;1.70;;
73456;SDS011;61691;53.072;6.582;2023-08-08T08:19:58;11.85;;;1.60;;
73456;SDS011;61691;53.072;6.582;2023-08-08T08:22:25;10.55;;;1.75;;
73456;SDS011;61691;53.072;6.582;2023-08-08T08:24:51;9.40;;;1.85;;
73456;SDS011;61691;53.072;6.582;2023-08-08T08:27:18;12.80;;;1.77;;
73456;SDS011;61691;53.072;6.582;2023-08-08T08:29:45;9.32;;;1.52;;
73456;SDS011;61691;53.072;6.582;2023-08-08T08:32:12;10.80;;;1.70;;
73456;SDS011;61691;53.072;6.582;2023-08-08T08:34:38;9.38;;;1.70;;
73456;SDS011;61691;53.072;6.582;2023-08-08T08:37:05;9.02;;;1.63;;
73456;SDS011;61691;53.072;6.582;2023-08-08T08:39:32;11.05;;;2.03;;
73456;SDS011;61691;53.072;6.582;2023-08-08T08:42:00;11.95;;;2.13;;
73456;SDS011;61691;53.072;6.582;2023-08-08T08:44:31;11.02;;;1.90;;
73456;SDS011;61691;53.072;6.582;2023-08-08T08:47:02;12.98;;;2.08;;
73456;SDS011;61691;53.072;6.582;2023-08-08T08:49:30;12.52;;;1.67;;
73456;SDS011;61691;53.072;6.582;2023-08-08T08:51:59;10.82;;;1.58;;
73456;SDS011;61691;53.072;6.582;2023-08-08T08:54:31;10.45;;;1.73;;
73456;SDS011;61691;53.072;6.582;2023-08-08T08:56:59;7.35;;;1.60;;
73456;SDS011;61691;53.072;6.582;2023-08-08T08:59:26;10.18;;;1.60;;
73456;SDS011;61691;53.072;6.582;2023-08-08T09:01:53;12.35;;;1.70;;
73456;SDS011;61691;53.072;6.582;2023-08-08T09:04:20;8.27;;;1.48;;
73456;SDS011;61691;53.072;6.582;2023-08-08T09:06:49;12.40;;;2.05;;
73456;SDS011;61691;53.072;6.582;2023-08-08T09:09:17;12.50;;;2.00;;
73456;SDS011;61691;53.072;6.582;2023-08-08T09:11:51;12.02;;;2.22;;
73456;SDS011;61691;53.072;6.582;2023-08-08T09:14:24;12.45;;;1.90;;
73456;SDS011;61691;53.072;6.582;2023-08-08T09:16:52;12.90;;;2.00;;
73456;SDS011;61691;53.072;6.582;2023-08-08T09:19:20;9.50;;;1.55;;
73456;SDS011;61691;53.072;6.582;2023-08-08T09:21:48;10.32;;;1.92;;
73456;SDS011;61691;53.072;6.582;2023-08-08T09:24:15;13.82;;;2.30;;
73456;SDS011;61691;53.072;6.582;2023-08-08T09:26:43;11.30;;;1.70;;
73456;SDS011;61691;53.072;6.582;2023-08-08T09:29:11;11.70;;;1.90;;
73456;SDS011;61691;53.072;6.582;2023-08-08T09:31:40;10.85;;;1.63;;
73456;SDS011;61691;53.072;6.582;2023-08-08T09:34:07;11.00;;;1.73;;
73456;SDS011;61691;53.072;6.582;2023-08-08T09:36:34;10.65;;;1.95;;
73456;SDS011;61691;53.072;6.582;2023-08-08T09:39:01;9.90;;;1.95;;
73456;SDS011;61691;53.072;6.582;2023-08-08T09:41:28;13.30;;;1.70;;
73456;SDS011;61691;53.072;6.582;2023-08-08T09:43:55;14.10;;;1.85;;
73456;SDS011;61691;53.072;6.582;2023-08-08T09:46:22;12.57;;;2.10;;
73456;SDS011;61691;53.072;6.582;2023-08-08T09:48:49;12.73;;;2.15;;
73456;SDS011;61691;53.072;6.582;2023-08-08T09:51:17;8.85;;;2.13;;
73456;SDS011;61691;53.072;6.582;2023-08-08T09:53:44;13.48;;;1.80;;
73456;SDS011;61691;53.072;6.582;2023-08-08T09:56:13;13.52;;;1.77;;
73456;SDS011;61691;53.072;6.582;2023-08-08T09:58:41;11.18;;;1.75;;
73456;SDS011;61691;53.072;6.582;2023-08-08T10:01:09;15.25;;;1.80;;
73456;SDS011;61691;53.072;6.582;2023-08-08T10:03:36;11.30;;;1.80;;
73456;SDS011;61691;53.072;6.582;2023-08-08T10:06:04;12.25;;;1.90;;
73456;SDS011;61691;53.072;6.582;2023-08-08T10:08:31;9.73;;;1.50;;
73456;SDS011;61691;53.072;6.582;2023-08-08T10:10:58;10.43;;;1.77;;
73456;SDS011;61691;53.072;6.582;2023-08-08T10:13:26;12.75;;;1.45;;
73456;SDS011;61691;53.072;6.582;2023-08-08T10:15:54;14.27;;;1.75;;
73456;SDS011;61691;53.072;6.582;2023-08-08T10:18:21;12.45;;;1.67;;
73456;SDS011;61691;53.072;6.582;2023-08-08T10:20:49;11.80;;;2.00;;
73456;SDS011;61691;53.072;6.582;2023-08-08T10:23:18;10.77;;;1.70;;
73456;SDS011;61691;53.072;6.582;2023-08-08T10:25:50;11.38;;;1.58;;
73456;SDS011;61691;53.072;6.582;2023-08-08T10:28:19;9.88;;;1.67;;
73456;SDS011;61691;53.072;6.582;2023-08-08T10:30:56;11.27;;;1.80;;
73456;SDS011;61691;53.072;6.582;2023-08-08T10:33:28;11.77;;;1.90;;
73456;SDS011;61691;53.072;6.582;2023-08-08T10:36:06;11.73;;;2.35;;
73456;SDS011;61691;53.072;6.582;2023-08-08T10:38:44;12.52;;;1.80;;
73456;SDS011;61691;53.072;6.582;2023-08-08T10:41:17;8.93;;;1.55;;
73456;SDS011;61691;53.072;6.582;2023-08-08T10:43:55;10.55;;;1.67;;
73456;SDS011;61691;53.072;6.582;2023-08-08T10:46:28;9.18;;;1.85;;
73456;SDS011;61691;53.072;6.582;2023-08-08T10:48:57;11.55;;;1.83;;
73456;SDS011;61691;53.072;6.582;2023-08-08T10:51:42;11.68;;;1.73;;
73456;SDS011;61691;53.072;6.582;2023-08-08T10:54:30;10.68;;;1.70;;
73456;SDS011;61691;53.072;6.582;2023-08-08T10:56:58;11.48;;;1.80;;
73456;SDS011;61691;53.072;6.582;2023-08-08T10:59:28;13.77;;;1.80;;
73456;SDS011;61691;53.072;6.582;2023-08-08T11:02:03;13.75;;;1.90;;
73456;SDS011;61691;53.072;6.582;2023-08-08T11:04:30;12.05;;;2.08;;
73456;SDS011;61691;53.072;6.582;2023-08-08T11:06:59;10.95;;;1.65;;
73456;SDS011;61691;53.072;6.582;2023-08-08T11:09:27;10.43;;;1.80;;
73456;SDS011;61691;53.072;6.582;2023-08-08T11:11:53;8.52;;;1.48;;
73456;SDS011;61691;53.072;6.582;2023-08-08T11:14:20;10.88;;;1.88;;
73456;SDS011;61691;53.072;6.582;2023-08-08T11:16:49;13.27;;;2.05;;
73456;SDS011;61691;53.072;6.582;2023-08-08T11:19:18;8.88;;;2.13;;
73456;SDS011;61691;53.072;6.582;2023-08-08T11:21:46;8.77;;;1.70;;
73456;SDS011;61691;53.072;6.582;2023-08-08T11:24:14;11.13;;;1.60;;
73456;SDS011;61691;53.072;6.582;2023-08-08T11:26:42;11.18;;;2.08;;
73456;SDS011;61691;53.072;6.582;2023-08-08T11:29:11;15.55;;;2.13;;
73456;SDS011;61691;53.072;6.582;2023-08-08T11:31:38;14.02;;;2.22;;
73456;SDS011;61691;53.072;6.582;2023-08-08T11:34:06;16.00;;;1.85;;
73456;SDS011;61691;53.072;6.582;2023-08-08T11:36:36;8.77;;;1.80;;
73456;SDS011;61691;53.072;6.582;2023-08-08T11:39:04;13.20;;;2.00;;
73456;SDS011;61691;53.072;6.582;2023-08-08T11:41:35;16.25;;;2.60;;
73456;SDS011;61691;53.072;6.582;2023-08-08T11:44:04;12.90;;;1.83;;
73456;SDS011;61691;53.072;6.582;2023-08-08T11:46:31;11.57;;;1.60;;
73456;SDS011;61691;53.072;6.582;2023-08-08T11:49:02;10.68;;;2.20;;
73456;SDS011;61691;53.072;6.582;2023-08-08T11:51:33;9.88;;;1.90;;
73456;SDS011;61691;53.072;6.582;2023-08-08T11:54:01;11.73;;;1.63;;
73456;SDS011;61691;53.072;6.582;2023-08-08T11:56:32;13.07;;;1.63;;
73456;SDS011;61691;53.072;6.582;2023-08-08T11:59:01;10.07;;;1.88;;
73456;SDS011;61691;53.072;6.582;2023-08-08T12:01:28;9.30;;;1.55;;
73456;SDS011;61691;53.072;6.582;2023-08-08T12:03:58;11.77;;;1.57;;
73456;SDS011;61691;53.072;6.582;2023-08-08T12:06:30;10.40;;;1.70;;
73456;SDS011;61691;53.072;6.582;2023-08-08T12:08:57;10.50;;;1.50;;
73456;SDS011;61691;53.072;6.582;2023-08-08T12:11:24;10.77;;;2.47;;
73456;SDS011;61691;53.072;6.582;2023-08-08T12:13:57;11.23;;;1.70;;
73456;SDS011;61691;53.072;6.582;2023-08-08T12:16:27;9.70;;;1.50;;
73456;SDS011;61691;53.072;6.582;2023-08-08T12:19:03;10.18;;;1.52;;
73456;SDS011;61691;53.072;6.582;2023-08-08T12:21:33;11.02;;;2.15;;
73456;SDS011;61691;53.072;6.582;2023-08-08T12:24:01;7.72;;;1.45;;
73456;SDS011;61691;53.072;6.582;2023-08-08T12:26:28;12.00;;;1.70;;
73456;SDS011;61691;53.072;6.582;2023-08-08T12:28:54;7.70;;;1.50;;
73456;SDS011;61691;53.072;6.582;2023-08-08T12:31:21;9.93;;;1.70;;
73456;SDS011;61691;53.072;6.582;2023-08-08T12:33:48;9.45;;;2.00;;
73456;SDS011;61691;53.072;6.582;2023-08-08T12:36:15;10.57;;;1.75;;
73456;SDS011;61691;53.072;6.582;2023-08-08T12:38:42;11.50;;;1.65;;
73456;SDS011;61691;53.072;6.582;2023-08-08T12:41:08;8.52;;;1.50;;
73456;SDS011;61691;53.072;6.582;2023-08-08T12:43:37;9.65;;;1.73;;
73456;SDS011;61691;53.072;6.582;2023-08-08T12:46:04;13.65;;;1.83;;
73456;SDS011;61691;53.072;6.582;2023-08-08T12:48:30;12.10;;;1.90;;
73456;SDS011;61691;53.072;6.582;2023-08-08T12:50:57;10.13;;;1.50;;
73456;SDS011;61691;53.072;6.582;2023-08-08T12:53:24;9.82;;;1.40;;
73456;SDS011;61691;53.072;6.582;2023-08-08T12:55:51;10.13;;;1.40;;
73456;SDS011;61691;53.072;6.582;2023-08-08T12:58:18;7.85;;;1.50;;
73456;SDS011;61691;53.072;6.582;2023-08-08T13:00:45;6.75;;;1.30;;
73456;SDS011;61691;53.072;6.582;2023-08-08T13:03:12;8.70;;;1.45;;
73456;SDS011;61691;53.072;6.582;2023-08-08T13:05:39;10.93;;;1.45;;
73456;SDS011;61691;53.072;6.582;2023-08-08T13:08:06;11.63;;;1.60;;
73456;SDS011;61691;53.072;6.582;2023-08-08T13:10:33;10.70;;;1.60;;
73456;SDS011;61691;53.072;6.582;2023-08-08T13:13:00;9.05;;;1.50;;
73456;SDS011;61691;53.072;6.582;2023-08-08T13:15:27;10.13;;;1.50;;
73456;SDS011;61691;53.072;6.582;2023-08-08T13:17:54;7.40;;;1.80;;
73456;SDS011;61691;53.072;6.582;2023-08-08T13:20:20;7.75;;;1.30;;
73456;SDS011;61691;53.072;6.582;2023-08-08T13:22:48;10.07;;;1.60;;
73456;SDS011;61691;53.072;6.582;2023-08-08T13:25:15;9.63;;;1.55;;
73456;SDS011;61691;53.072;6.582;2023-08-08T13:27:41;11.55;;;1.67;;
73456;SDS011;61691;53.072;6.582;2023-08-08T13:30:09;12.90;;;1.90;;
73456;SDS011;61691;53.072;6.582;2023-08-08T13:32:36;12.05;;;1.80;;
73456;SDS011;61691;53.072;6.582;2023-08-08T13:35:03;13.60;;;1.70;;
73456;SDS011;61691;53.072;6.582;2023-08-08T13:37:31;14.05;;;1.90;;
73456;SDS011;61691;53.072;6.582;2023-08-08T13:39:58;14.18;;;2.00;;
73456;SDS011;61691;53.072;6.582;2023-08-08T13:42:24;9.88;;;1.70;;
73456;SDS011;61691;53.072;6.582;2023-08-08T13:44:51;11.77;;;1.77;;
73456;SDS011;61691;53.072;6.582;2023-08-08T13:47:20;15.00;;;2.30;;
73456;SDS011;61691;53.072;6.582;2023-08-08T13:49:47;9.57;;;1.73;;
73456;SDS011;61691;53.072;6.582;2023-08-08T13:52:14;10.93;;;1.60;;
73456;SDS011;61691;53.072;6.582;2023-08-08T13:54:40;9.65;;;1.55;;
73456;SDS011;61691;53.072;6.582;2023-08-08T13:57:07;9.65;;;1.40;;
73456;SDS011;61691;53.072;6.582;2023-08-08T13:59:34;14.48;;;2.45;;
73456;SDS011;61691;53.072;6.582;2023-08-08T14:02:01;11.30;;;1.80;;
73456;SDS011;61691;53.072;6.582;2023-08-08T14:04:28;14.52;;;2.25;;
73456;SDS011;61691;53.072;6.582;2023-08-08T14:06:55;11.35;;;1.83;;
73456;SDS011;61691;53.072;6.582;2023-08-08T14:09:22;12.70;;;1.60;;
73456;SDS011;61691;53.072;6.582;2023-08-08T14:11:49;10.05;;;1.88;;
73456;SDS011;61691;53.072;6.582;2023-08-08T14:14:16;15.07;;;1.73;;
73456;SDS011;61691;53.072;6.582;2023-08-08T14:16:42;10.57;;;1.85;;
73456;SDS011;61691;53.072;6.582;2023-08-08T14:19:09;11.57;;;1.65;;
73456;SDS011;61691;53.072;6.582;2023-08-08T14:21:36;10.73;;;1.63;;
73456;SDS011;61691;53.072;6.582;2023-08-08T14:24:03;13.68;;;2.05;;
73456;SDS011;61691;53.072;6.582;2023-08-08T14:26:30;13.32;;;1.98;;
73456;SDS011;61691;53.072;6.582;2023-08-08T14:28:56;9.55;;;1.75;;
73456;SDS011;61691;53.072;6.582;2023-08-08T14:31:23;11.48;;;2.22;;
73456;SDS011;61691;53.072;6.582;2023-08-08T14:33:50;8.88;;;1.65;;
73456;SDS011;61691;53.072;6.582;2023-08-08T14:36:17;10.93;;;1.65;;
73456;SDS011;61691;53.072;6.582;2023-08-08T14:38:44;12.23;;;1.60;;
73456;SDS011;61691;53.072;6.582;2023-08-08T14:41:10;11.02;;;1.80;;
73456;SDS011;61691;53.072;6.582;2023-08-08T14:43:37;14.23;;;2.50;;